FAPE

Port Elizabeth Airport

Port Elizabeth, South Africa
METAR FAPE 101500Z 09017KT 9999 FEW020 21/16 Q1019 NOSIG
Observed Flight Rules
Dec-10 @ 15:00 UTC (54 minutes ago) Visual Flight Rules
Wind Visibility Clouds
90° at 17 knots 10,000+ meters
  • Few at 2,000' AGL
Temperatures Readings
Current 21°C / 70°F
Dewpoint 16°C / 61°F
Humidity 73%
Altimeter 30.09" Hg
Pressure 1019 hPa
Elevation 60
METAR FAPE 101500Z 09017KT 9999 FEW020 21/16 Q1019 NOSIG
Observed Flight Rules
Dec-10 @ 15:00 UTC
(54 minutes ago)
VFR
Wind Visibility
90° at 17 knots 10,000+ meters
Clouds
  • Few at 2,000' AGL
Temperature Dewpoint
21°C / 70°F 16°C / 61°F
Humidity Altimeter Pressure
73% 30.09" Hg 1019 hPa